Terminal Aerodrome Forecast
Issued by NWS Binghamton, NY

Home | Current Version | Previous Version | Text Only | Print | Product List | Glossary On
Versions: 1 2 3 4 5 6 7 8 9 10 11 12 13 14 15 16 17 18 19 20
000
FTUS41 KBGM 231800 AAA
TAFBGM
TAF AMD
KBGM 231856Z 2319/2418 25010KT P6SM BKN040
      TEMPO 2319/2323 4SM TSRA OVC035CB
     FM240000 33007KT P6SM OVC025
     FM240500 34006KT P6SM OVC035
     FM241500 25012KT P6SM BKN040=

USA.gov is the U.S. government's official web portal to all federal, state and local government web resources and services.